ADDS METAR Data INFO
IDs: Format: Raw Decoded Include TAF

Data at: 1125 UTC 19 Jan 2018

KMQY 191056Z AUTO 00000KT 10SM CLR M10/M12 A3033 RMK AO2 SLP319 T11001117